sensor_id;sensor_type;location;lat;lon;timestamp;pressure;altitude;pressure_sealevel;temperature;humidity
71195;BME280;58908;51.426;7.714;2023-06-19T00:01:04;99107.66;;;22.36;77.21
71195;BME280;58908;51.426;7.714;2023-06-19T00:03:31;99101.81;;;22.25;78.86
71195;BME280;58908;51.426;7.714;2023-06-19T00:05:58;99094.81;;;22.16;79.96
71195;BME280;58908;51.426;7.714;2023-06-19T00:08:24;99104.75;;;22.15;80.48
71195;BME280;58908;51.426;7.714;2023-06-19T00:10:50;99089.19;;;22.03;81.87
71195;BME280;58908;51.426;7.714;2023-06-19T00:13:17;99095.75;;;22.01;81.83
71195;BME280;58908;51.426;7.714;2023-06-19T00:15:44;99097.94;;;22.05;82.40
71195;BME280;58908;51.426;7.714;2023-06-19T00:18:10;99089.69;;;21.99;82.03
71195;BME280;58908;51.426;7.714;2023-06-19T00:20:37;99091.22;;;21.93;83.62
71195;BME280;58908;51.426;7.714;2023-06-19T00:23:04;99082.72;;;21.90;82.93
71195;BME280;58908;51.426;7.714;2023-06-19T00:25:31;99089.75;;;21.91;81.93
71195;BME280;58908;51.426;7.714;2023-06-19T00:27:57;99091.94;;;21.87;82.59
71195;BME280;58908;51.426;7.714;2023-06-19T00:30:24;99091.63;;;21.82;82.41
71195;BME280;58908;51.426;7.714;2023-06-19T00:32:50;99077.50;;;21.88;81.03
71195;BME280;58908;51.426;7.714;2023-06-19T00:35:18;99079.66;;;21.93;79.74
71195;BME280;58908;51.426;7.714;2023-06-19T00:37:45;99079.34;;;21.88;81.42
71195;BME280;58908;51.426;7.714;2023-06-19T00:40:19;99080.34;;;21.87;80.29
71195;BME280;58908;51.426;7.714;2023-06-19T00:42:50;99079.34;;;21.88;80.06
71195;BME280;58908;51.426;7.714;2023-06-19T00:45:16;99085.25;;;21.83;82.11
71195;BME280;58908;51.426;7.714;2023-06-19T00:47:43;99090.63;;;21.83;80.89
71195;BME280;58908;51.426;7.714;2023-06-19T00:50:09;99082.56;;;21.83;82.12
71195;BME280;58908;51.426;7.714;2023-06-19T00:52:36;99088.28;;;21.80;83.30
71195;BME280;58908;51.426;7.714;2023-06-19T00:55:04;99095.00;;;21.76;83.37
71195;BME280;58908;51.426;7.714;2023-06-19T00:57:31;99101.25;;;21.69;85.84
71195;BME280;58908;51.426;7.714;2023-06-19T00:59:57;99097.72;;;21.60;83.96
71195;BME280;58908;51.426;7.714;2023-06-19T01:02:24;99099.59;;;21.52;85.59
71195;BME280;58908;51.426;7.714;2023-06-19T01:04:50;99092.53;;;21.51;85.97
71195;BME280;58908;51.426;7.714;2023-06-19T01:07:18;99100.09;;;21.47;86.86
71195;BME280;58908;51.426;7.714;2023-06-19T01:09:46;99100.47;;;21.36;89.83
71195;BME280;58908;51.426;7.714;2023-06-19T01:12:18;99096.66;;;21.23;90.84
71195;BME280;58908;51.426;7.714;2023-06-19T01:14:48;99099.69;;;21.12;92.30
71195;BME280;58908;51.426;7.714;2023-06-19T01:17:16;99081.41;;;20.91;94.79
71195;BME280;58908;51.426;7.714;2023-06-19T01:19:42;99095.13;;;20.80;98.00
71195;BME280;58908;51.426;7.714;2023-06-19T01:22:10;99095.16;;;20.72;100.00
71195;BME280;58908;51.426;7.714;2023-06-19T01:24:36;99098.66;;;20.73;100.00
71195;BME280;58908;51.426;7.714;2023-06-19T01:27:02;99093.13;;;20.66;100.00
71195;BME280;58908;51.426;7.714;2023-06-19T01:29:29;99088.25;;;20.62;100.00
71195;BME280;58908;51.426;7.714;2023-06-19T01:31:57;99091.28;;;20.75;99.04
71195;BME280;58908;51.426;7.714;2023-06-19T01:34:25;99090.09;;;20.77;97.14
71195;BME280;58908;51.426;7.714;2023-06-19T01:36:53;99095.47;;;20.61;100.00
71195;BME280;58908;51.426;7.714;2023-06-19T01:39:23;99092.59;;;20.55;100.00
71195;BME280;58908;51.426;7.714;2023-06-19T01:41:50;99090.59;;;20.57;100.00
71195;BME280;58908;51.426;7.714;2023-06-19T01:44:17;99094.28;;;20.56;100.00
71195;BME280;58908;51.426;7.714;2023-06-19T01:46:46;99096.59;;;20.43;100.00
71195;BME280;58908;51.426;7.714;2023-06-19T01:49:13;99100.09;;;20.35;100.00
71195;BME280;58908;51.426;7.714;2023-06-19T01:51:39;99098.78;;;20.39;100.00
71195;BME280;58908;51.426;7.714;2023-06-19T01:54:05;99093.75;;;20.44;100.00
71195;BME280;58908;51.426;7.714;2023-06-19T01:56:33;99096.09;;;20.47;100.00
71195;BME280;58908;51.426;7.714;2023-06-19T01:58:59;99100.78;;;20.37;100.00
71195;BME280;58908;51.426;7.714;2023-06-19T02:01:25;99087.88;;;20.41;100.00
71195;BME280;58908;51.426;7.714;2023-06-19T02:03:52;99092.72;;;20.37;100.00
71195;BME280;58908;51.426;7.714;2023-06-19T02:06:18;99086.06;;;20.41;100.00
71195;BME280;58908;51.426;7.714;2023-06-19T02:08:46;99083.56;;;20.48;100.00
71195;BME280;58908;51.426;7.714;2023-06-19T02:11:12;99092.78;;;20.61;100.00
71195;BME280;58908;51.426;7.714;2023-06-19T02:13:40;99092.59;;;20.63;100.00
71195;BME280;58908;51.426;7.714;2023-06-19T02:16:06;99088.72;;;20.49;100.00
71195;BME280;58908;51.426;7.714;2023-06-19T02:18:32;99083.56;;;20.48;100.00
71195;BME280;58908;51.426;7.714;2023-06-19T02:20:58;99084.22;;;20.50;100.00
71195;BME280;58908;51.426;7.714;2023-06-19T02:23:25;99087.06;;;20.40;100.00
71195;BME280;58908;51.426;7.714;2023-06-19T02:25:51;99093.59;;;20.38;100.00
71195;BME280;58908;51.426;7.714;2023-06-19T02:28:17;99091.06;;;20.36;100.00
71195;BME280;58908;51.426;7.714;2023-06-19T02:30:45;99088.56;;;20.35;100.00
71195;BME280;58908;51.426;7.714;2023-06-19T02:33:11;99087.72;;;20.34;100.00
71195;BME280;58908;51.426;7.714;2023-06-19T02:35:38;99092.94;;;20.60;94.09
71195;BME280;58908;51.426;7.714;2023-06-19T02:38:06;99087.28;;;20.87;90.79
71195;BME280;58908;51.426;7.714;2023-06-19T02:40:32;99083.41;;;21.21;83.87
71195;BME280;58908;51.426;7.714;2023-06-19T02:42:59;99084.56;;;21.19;83.63
71195;BME280;58908;51.426;7.714;2023-06-19T02:45:25;99091.34;;;21.69;76.91
71195;BME280;58908;51.426;7.714;2023-06-19T02:47:52;99091.94;;;21.87;75.62
71195;BME280;58908;51.426;7.714;2023-06-19T02:50:19;99088.53;;;22.01;74.75
71195;BME280;58908;51.426;7.714;2023-06-19T02:52:46;99092.94;;;22.24;71.59
71195;BME280;58908;51.426;7.714;2023-06-19T02:55:12;99095.03;;;22.37;70.87
71195;BME280;58908;51.426;7.714;2023-06-19T02:57:38;99102.91;;;22.46;70.94
71195;BME280;58908;51.426;7.714;2023-06-19T03:00:05;99104.22;;;22.50;69.44
71195;BME280;58908;51.426;7.714;2023-06-19T03:02:33;99117.66;;;22.50;69.47
71195;BME280;58908;51.426;7.714;2023-06-19T03:05:01;99116.00;;;22.49;69.68
71195;BME280;58908;51.426;7.714;2023-06-19T03:07:28;99126.09;;;22.47;69.89
71195;BME280;58908;51.426;7.714;2023-06-19T03:09:54;99122.25;;;22.42;71.19
71195;BME280;58908;51.426;7.714;2023-06-19T03:12:20;99141.38;;;22.47;70.10
71195;BME280;58908;51.426;7.714;2023-06-19T03:14:46;99142.19;;;22.55;68.73
71195;BME280;58908;51.426;7.714;2023-06-19T03:17:13;99147.72;;;22.54;69.56
71195;BME280;58908;51.426;7.714;2023-06-19T03:19:39;99142.03;;;22.49;68.87
71195;BME280;58908;51.426;7.714;2023-06-19T03:22:07;99147.22;;;22.50;68.95
71195;BME280;58908;51.426;7.714;2023-06-19T03:24:33;99149.25;;;22.48;70.02
71195;BME280;58908;51.426;7.714;2023-06-19T03:26:59;99144.19;;;22.53;69.74
71195;BME280;58908;51.426;7.714;2023-06-19T03:29:25;99150.28;;;22.47;69.51
71195;BME280;58908;51.426;7.714;2023-06-19T03:31:52;99157.47;;;22.55;68.89
71195;BME280;58908;51.426;7.714;2023-06-19T03:34:18;99160.81;;;22.57;69.70
71195;BME280;58908;51.426;7.714;2023-06-19T03:36:44;99174.09;;;22.58;68.75
71195;BME280;58908;51.426;7.714;2023-06-19T03:39:11;99173.28;;;22.50;69.71
71195;BME280;58908;51.426;7.714;2023-06-19T03:41:38;99168.59;;;22.44;69.48
71195;BME280;58908;51.426;7.714;2023-06-19T03:44:04;99171.50;;;22.34;70.63
71195;BME280;58908;51.426;7.714;2023-06-19T03:46:31;99180.75;;;22.24;72.29
71195;BME280;58908;51.426;7.714;2023-06-19T03:48:57;99183.09;;;22.27;72.78
71195;BME280;58908;51.426;7.714;2023-06-19T03:51:23;99184.16;;;22.18;73.70
71195;BME280;58908;51.426;7.714;2023-06-19T03:53:49;99182.16;;;22.12;74.04
71195;BME280;58908;51.426;7.714;2023-06-19T03:56:17;99189.44;;;21.96;74.91
71195;BME280;58908;51.426;7.714;2023-06-19T03:58:43;99196.81;;;22.02;75.12
71195;BME280;58908;51.426;7.714;2023-06-19T04:01:09;99197.50;;;21.88;76.55
71195;BME280;58908;51.426;7.714;2023-06-19T04:03:35;99193.19;;;21.79;77.58
71195;BME280;58908;51.426;7.714;2023-06-19T04:06:02;99190.00;;;21.75;77.79
71195;BME280;58908;51.426;7.714;2023-06-19T04:08:28;99191.34;;;21.79;77.80
71195;BME280;58908;51.426;7.714;2023-06-19T04:10:54;99183.47;;;21.70;79.57
71195;BME280;58908;51.426;7.714;2023-06-19T04:13:22;99194.38;;;21.68;79.87
71195;BME280;58908;51.426;7.714;2023-06-19T04:15:51;99194.03;;;21.63;81.84
71195;BME280;58908;51.426;7.714;2023-06-19T04:18:17;99209.97;;;21.65;81.05
71195;BME280;58908;51.426;7.714;2023-06-19T04:20:43;99219.03;;;21.64;82.26
71195;BME280;58908;51.426;7.714;2023-06-19T04:23:10;99213.53;;;21.65;81.21
71195;BME280;58908;51.426;7.714;2023-06-19T04:25:36;99224.56;;;21.62;81.90
71195;BME280;58908;51.426;7.714;2023-06-19T04:28:03;99218.53;;;21.68;81.04
71195;BME280;58908;51.426;7.714;2023-06-19T04:30:30;99220.22;;;21.77;81.00
71195;BME280;58908;51.426;7.714;2023-06-19T04:32:57;99221.22;;;21.68;82.42
71195;BME280;58908;51.426;7.714;2023-06-19T04:35:23;99225.09;;;21.66;82.25
71195;BME280;58908;51.426;7.714;2023-06-19T04:37:49;99231.47;;;21.73;81.50
71195;BME280;58908;51.426;7.714;2023-06-19T04:40:16;99232.78;;;21.77;81.74
71195;BME280;58908;51.426;7.714;2023-06-19T04:42:42;99240.53;;;21.80;81.63
71195;BME280;58908;51.426;7.714;2023-06-19T04:45:08;99246.91;;;21.79;83.18
71195;BME280;58908;51.426;7.714;2023-06-19T04:47:36;99265.53;;;21.64;87.16
71195;BME280;58908;51.426;7.714;2023-06-19T04:50:03;99258.44;;;21.47;90.35
71195;BME280;58908;51.426;7.714;2023-06-19T04:52:29;99269.69;;;21.51;92.68
71195;BME280;58908;51.426;7.714;2023-06-19T04:54:58;99266.31;;;21.33;95.36
71195;BME280;58908;51.426;7.714;2023-06-19T04:57:24;99272.69;;;21.32;97.40
71195;BME280;58908;51.426;7.714;2023-06-19T04:59:50;99278.75;;;21.34;98.71
71195;BME280;58908;51.426;7.714;2023-06-19T05:02:17;99280.75;;;21.24;100.00
71195;BME280;58908;51.426;7.714;2023-06-19T05:04:44;99286.13;;;21.24;100.00
71195;BME280;58908;51.426;7.714;2023-06-19T05:07:10;99288.81;;;21.24;100.00
71195;BME280;58908;51.426;7.714;2023-06-19T05:09:37;99294.19;;;21.24;100.00
71195;BME280;58908;51.426;7.714;2023-06-19T05:12:04;99289.97;;;21.21;100.00
71195;BME280;58908;51.426;7.714;2023-06-19T05:14:30;99304.06;;;21.23;100.00
71195;BME280;58908;51.426;7.714;2023-06-19T05:16:56;99298.69;;;21.23;100.00
71195;BME280;58908;51.426;7.714;2023-06-19T05:19:23;99290.00;;;21.29;100.00
71195;BME280;58908;51.426;7.714;2023-06-19T05:21:50;99301.56;;;21.38;100.00
71195;BME280;58908;51.426;7.714;2023-06-19T05:24:17;99293.84;;;21.43;100.00
71195;BME280;58908;51.426;7.714;2023-06-19T05:26:43;99287.66;;;21.42;100.00
71195;BME280;58908;51.426;7.714;2023-06-19T05:29:09;99299.38;;;21.33;100.00
71195;BME280;58908;51.426;7.714;2023-06-19T05:31:36;99295.72;;;21.42;100.00
71195;BME280;58908;51.426;7.714;2023-06-19T05:34:02;99300.06;;;21.43;100.00
71195;BME280;58908;51.426;7.714;2023-06-19T05:36:28;99305.28;;;21.45;100.00
71195;BME280;58908;51.426;7.714;2023-06-19T05:38:56;99307.44;;;21.41;100.00
71195;BME280;58908;51.426;7.714;2023-06-19T05:41:22;99302.91;;;21.50;100.00
71195;BME280;58908;51.426;7.714;2023-06-19T05:43:48;99309.78;;;21.44;100.00
71195;BME280;58908;51.426;7.714;2023-06-19T05:46:15;99307.63;;;21.48;100.00
71195;BME280;58908;51.426;7.714;2023-06-19T05:48:41;99324.38;;;21.50;100.00
71195;BME280;58908;51.426;7.714;2023-06-19T05:51:07;99334.66;;;21.62;100.00
71195;BME280;58908;51.426;7.714;2023-06-19T05:53:33;99331.81;;;21.80;100.00
71195;BME280;58908;51.426;7.714;2023-06-19T05:56:01;99325.28;;;21.74;100.00
71195;BME280;58908;51.426;7.714;2023-06-19T05:58:27;99332.31;;;21.91;100.00
71195;BME280;58908;51.426;7.714;2023-06-19T06:00:53;99335.66;;;22.17;100.00
71195;BME280;58908;51.426;7.714;2023-06-19T06:03:23;99343.59;;;22.73;100.00
71195;BME280;58908;51.426;7.714;2023-06-19T06:05:49;99346.53;;;22.94;97.68
71195;BME280;58908;51.426;7.714;2023-06-19T06:08:16;99354.69;;;22.70;96.77
71195;BME280;58908;51.426;7.714;2023-06-19T06:10:42;99350.66;;;22.74;97.57
71195;BME280;58908;51.426;7.714;2023-06-19T06:13:10;99356.97;;;22.89;97.35
71195;BME280;58908;51.426;7.714;2023-06-19T06:15:36;99355.03;;;23.13;94.58
71195;BME280;58908;51.426;7.714;2023-06-19T06:18:02;99359.22;;;23.16;93.60
71195;BME280;58908;51.426;7.714;2023-06-19T06:20:28;99359.56;;;23.13;94.17
71195;BME280;58908;51.426;7.714;2023-06-19T06:22:54;99369.25;;;22.91;94.06
71195;BME280;58908;51.426;7.714;2023-06-19T06:25:21;99358.31;;;23.54;90.13
71195;BME280;58908;51.426;7.714;2023-06-19T06:27:47;99365.22;;;23.56;87.77
71195;BME280;58908;51.426;7.714;2023-06-19T06:30:15;99374.97;;;23.27;91.09
71195;BME280;58908;51.426;7.714;2023-06-19T06:32:41;99377.41;;;23.14;90.81
71195;BME280;58908;51.426;7.714;2023-06-19T06:35:07;99368.44;;;23.52;90.40
71195;BME280;58908;51.426;7.714;2023-06-19T06:37:34;99385.00;;;23.41;90.09
71195;BME280;58908;51.426;7.714;2023-06-19T06:40:00;99381.06;;;22.74;93.02
71195;BME280;58908;51.426;7.714;2023-06-19T06:42:28;99393.47;;;22.83;93.00
71195;BME280;58908;51.426;7.714;2023-06-19T06:44:54;99388.34;;;22.58;94.33
71195;BME280;58908;51.426;7.714;2023-06-19T06:47:21;99381.56;;;22.70;94.18
71195;BME280;58908;51.426;7.714;2023-06-19T06:49:48;99388.84;;;22.53;95.02
71195;BME280;58908;51.426;7.714;2023-06-19T06:52:14;99383.63;;;23.06;96.04
71195;BME280;58908;51.426;7.714;2023-06-19T06:54:40;99385.16;;;23.01;91.10
71195;BME280;58908;51.426;7.714;2023-06-19T06:57:06;99378.75;;;23.93;88.46
71195;BME280;58908;51.426;7.714;2023-06-19T06:59:33;99382.38;;;24.23;85.51
71195;BME280;58908;51.426;7.714;2023-06-19T07:01:59;99377.28;;;24.28;83.23
71195;BME280;58908;51.426;7.714;2023-06-19T07:04:27;99380.41;;;24.82;79.35
71195;BME280;58908;51.426;7.714;2023-06-19T07:06:53;99368.94;;;25.59;76.05
71195;BME280;58908;51.426;7.714;2023-06-19T07:09:19;99377.16;;;25.30;75.83
71195;BME280;58908;51.426;7.714;2023-06-19T07:11:47;99378.06;;;24.51;78.63
71195;BME280;58908;51.426;7.714;2023-06-19T07:14:13;99369.34;;;24.77;77.74
71195;BME280;58908;51.426;7.714;2023-06-19T07:16:39;99380.25;;;24.33;77.65
71195;BME280;58908;51.426;7.714;2023-06-19T07:19:05;99379.59;;;24.82;77.40
71195;BME280;58908;51.426;7.714;2023-06-19T07:21:33;99385.81;;;24.31;78.71
71195;BME280;58908;51.426;7.714;2023-06-19T07:23:59;99382.94;;;24.84;74.93
71195;BME280;58908;51.426;7.714;2023-06-19T07:26:26;99390.19;;;24.18;77.64
71195;BME280;58908;51.426;7.714;2023-06-19T07:28:52;99386.00;;;23.93;78.32
71195;BME280;58908;51.426;7.714;2023-06-19T07:31:18;99395.22;;;23.98;79.37
71195;BME280;58908;51.426;7.714;2023-06-19T07:33:45;99391.13;;;23.80;79.28
71195;BME280;58908;51.426;7.714;2023-06-19T07:36:11;99394.72;;;24.17;78.13
71195;BME280;58908;51.426;7.714;2023-06-19T07:38:40;99387.94;;;23.76;80.94
71195;BME280;58908;51.426;7.714;2023-06-19T07:41:06;99392.25;;;24.30;78.82
71195;BME280;58908;51.426;7.714;2023-06-19T07:43:34;99405.84;;;24.51;77.50
71195;BME280;58908;51.426;7.714;2023-06-19T07:46:01;99394.84;;;24.61;74.92
71195;BME280;58908;51.426;7.714;2023-06-19T07:48:27;99402.47;;;24.35;76.92
71195;BME280;58908;51.426;7.714;2023-06-19T07:50:53;99395.09;;;24.14;78.37
71195;BME280;58908;51.426;7.714;2023-06-19T07:53:20;99408.75;;;24.13;77.29
71195;BME280;58908;51.426;7.714;2023-06-19T07:55:47;99413.41;;;24.19;79.06
71195;BME280;58908;51.426;7.714;2023-06-19T07:58:13;99410.41;;;24.36;75.09
71195;BME280;58908;51.426;7.714;2023-06-19T08:00:40;99402.09;;;24.75;72.63
71195;BME280;58908;51.426;7.714;2023-06-19T08:03:06;99407.91;;;24.49;74.35
71195;BME280;58908;51.426;7.714;2023-06-19T08:05:32;99407.31;;;24.76;74.35
71195;BME280;58908;51.426;7.714;2023-06-19T08:07:58;99402.38;;;25.58;69.18
71195;BME280;58908;51.426;7.714;2023-06-19T08:10:25;99418.94;;;24.77;71.12
71195;BME280;58908;51.426;7.714;2023-06-19T08:12:52;99414.41;;;24.40;71.77
71195;BME280;58908;51.426;7.714;2023-06-19T08:15:19;99412.53;;;25.06;70.58
71195;BME280;58908;51.426;7.714;2023-06-19T08:17:45;99417.09;;;24.63;72.28
71195;BME280;58908;51.426;7.714;2023-06-19T08:20:11;99411.31;;;24.29;73.51
71195;BME280;58908;51.426;7.714;2023-06-19T08:22:38;99414.19;;;24.05;74.38
71195;BME280;58908;51.426;7.714;2023-06-19T08:25:04;99416.44;;;24.38;74.54
71195;BME280;58908;51.426;7.714;2023-06-19T08:27:31;99415.03;;;24.42;73.22
71195;BME280;58908;51.426;7.714;2023-06-19T08:29:58;99413.13;;;24.14;74.96
71195;BME280;58908;51.426;7.714;2023-06-19T08:32:24;99418.16;;;24.17;73.07
71195;BME280;58908;51.426;7.714;2023-06-19T08:34:51;99422.78;;;23.78;74.80
71195;BME280;58908;51.426;7.714;2023-06-19T08:37:18;99420.69;;;23.96;74.72
71195;BME280;58908;51.426;7.714;2023-06-19T08:39:44;99423.69;;;23.70;76.86
71195;BME280;58908;51.426;7.714;2023-06-19T08:42:10;99415.44;;;23.41;77.16
71195;BME280;58908;51.426;7.714;2023-06-19T08:44:37;99429.38;;;23.75;80.29
71195;BME280;58908;51.426;7.714;2023-06-19T08:47:05;99426.63;;;23.83;76.53
71195;BME280;58908;51.426;7.714;2023-06-19T08:49:33;99422.41;;;24.11;78.20
71195;BME280;58908;51.426;7.714;2023-06-19T08:52:00;99422.81;;;24.23;76.42
71195;BME280;58908;51.426;7.714;2023-06-19T08:54:26;99420.44;;;24.05;75.87
71195;BME280;58908;51.426;7.714;2023-06-19T08:56:52;99426.50;;;23.77;76.65
71195;BME280;58908;51.426;7.714;2023-06-19T08:59:19;99429.75;;;24.17;76.64
71195;BME280;58908;51.426;7.714;2023-06-19T09:01:46;99432.03;;;24.28;76.66
71195;BME280;58908;51.426;7.714;2023-06-19T09:04:18;99437.84;;;23.64;77.01
71195;BME280;58908;51.426;7.714;2023-06-19T09:06:48;99441.94;;;23.91;78.00
71195;BME280;58908;51.426;7.714;2023-06-19T09:09:14;99443.03;;;24.04;78.08
71195;BME280;58908;51.426;7.714;2023-06-19T09:11:41;99440.59;;;24.09;78.64
71195;BME280;58908;51.426;7.714;2023-06-19T09:14:09;99438.44;;;24.05;76.72
71195;BME280;58908;51.426;7.714;2023-06-19T09:16:36;99433.25;;;24.03;77.13
71195;BME280;58908;51.426;7.714;2023-06-19T09:19:03;99441.47;;;24.69;75.19
71195;BME280;58908;51.426;7.714;2023-06-19T09:21:30;99437.38;;;24.87;74.32
71195;BME280;58908;51.426;7.714;2023-06-19T09:24:01;99433.84;;;25.45;69.96
71195;BME280;58908;51.426;7.714;2023-06-19T09:26:28;99432.94;;;25.73;69.89
71195;BME280;58908;51.426;7.714;2023-06-19T09:28:54;99425.34;;;26.04;69.37
71195;BME280;58908;51.426;7.714;2023-06-19T09:31:30;99419.06;;;26.18;68.70
71195;BME280;58908;51.426;7.714;2023-06-19T09:33:57;99426.44;;;26.31;68.56
71195;BME280;58908;51.426;7.714;2023-06-19T09:36:23;99424.50;;;26.46;68.63
71195;BME280;58908;51.426;7.714;2023-06-19T09:38:53;99431.97;;;26.44;69.78
71195;BME280;58908;51.426;7.714;2023-06-19T09:41:20;99430.59;;;27.09;65.21
71195;BME280;58908;51.426;7.714;2023-06-19T09:43:47;99423.50;;;27.08;63.38
71195;BME280;58908;51.426;7.714;2023-06-19T09:46:15;99435.16;;;25.70;68.51
71195;BME280;58908;51.426;7.714;2023-06-19T09:48:43;99442.50;;;25.11;71.00
71195;BME280;58908;51.426;7.714;2023-06-19T09:51:12;99452.88;;;24.57;74.20
71195;BME280;58908;51.426;7.714;2023-06-19T09:53:42;99456.66;;;25.42;72.86
71195;BME280;58908;51.426;7.714;2023-06-19T09:56:11;99452.59;;;26.03;70.31
71195;BME280;58908;51.426;7.714;2023-06-19T09:58:37;99453.38;;;27.61;64.42
71195;BME280;58908;51.426;7.714;2023-06-19T10:01:04;99447.41;;;27.79;62.95
71195;BME280;58908;51.426;7.714;2023-06-19T10:03:32;99457.56;;;25.99;67.87
71195;BME280;58908;51.426;7.714;2023-06-19T10:05:59;99461.44;;;24.60;72.58
71195;BME280;58908;51.426;7.714;2023-06-19T10:08:26;99465.56;;;24.48;75.04
71195;BME280;58908;51.426;7.714;2023-06-19T10:10:54;99464.38;;;26.37;70.49
71195;BME280;58908;51.426;7.714;2023-06-19T10:13:30;99461.50;;;27.61;67.63
71195;BME280;58908;51.426;7.714;2023-06-19T10:15:56;99452.38;;;27.29;64.17
71195;BME280;58908;51.426;7.714;2023-06-19T10:18:23;99456.88;;;28.09;63.98
71195;BME280;58908;51.426;7.714;2023-06-19T10:20:50;99452.56;;;28.60;59.53
71195;BME280;58908;51.426;7.714;2023-06-19T10:23:17;99474.03;;;27.62;62.24
71195;BME280;58908;51.426;7.714;2023-06-19T10:25:44;99459.94;;;27.86;60.98
71195;BME280;58908;51.426;7.714;2023-06-19T10:28:17;99457.06;;;27.41;61.53
71195;BME280;58908;51.426;7.714;2023-06-19T10:30:44;99448.81;;;28.35;60.90
71195;BME280;58908;51.426;7.714;2023-06-19T10:33:11;99459.22;;;27.65;59.56
71195;BME280;58908;51.426;7.714;2023-06-19T10:35:37;99451.06;;;27.12;61.02
71195;BME280;58908;51.426;7.714;2023-06-19T10:38:05;99460.22;;;27.51;61.04
71195;BME280;58908;51.426;7.714;2023-06-19T10:40:31;99455.72;;;28.83;56.16
71195;BME280;58908;51.426;7.714;2023-06-19T10:42:58;99451.72;;;28.85;55.50
71195;BME280;58908;51.426;7.714;2023-06-19T10:45:24;99456.31;;;27.26;57.70
71195;BME280;58908;51.426;7.714;2023-06-19T10:48:00;99448.66;;;27.02;60.32
71195;BME280;58908;51.426;7.714;2023-06-19T10:50:27;99451.66;;;28.20;57.10
71195;BME280;58908;51.426;7.714;2023-06-19T10:52:53;99450.28;;;27.71;58.01
71195;BME280;58908;51.426;7.714;2023-06-19T10:55:20;99449.78;;;27.95;57.48
71195;BME280;58908;51.426;7.714;2023-06-19T10:57:46;99449.09;;;27.33;58.47
71195;BME280;58908;51.426;7.714;2023-06-19T11:00:21;99456.53;;;26.91;58.88
71195;BME280;58908;51.426;7.714;2023-06-19T11:02:48;99457.59;;;26.96;60.64
71195;BME280;58908;51.426;7.714;2023-06-19T11:05:16;99449.63;;;26.61;60.31
71195;BME280;58908;51.426;7.714;2023-06-19T11:07:42;99446.22;;;27.41;58.17
71195;BME280;58908;51.426;7.714;2023-06-19T11:10:08;99440.41;;;26.55;59.78
71195;BME280;58908;51.426;7.714;2023-06-19T11:12:47;99439.03;;;25.82;60.73
71195;BME280;58908;51.426;7.714;2023-06-19T11:15:13;99442.72;;;26.58;60.74
71195;BME280;58908;51.426;7.714;2023-06-19T11:17:39;99440.63;;;27.15;59.00
71195;BME280;58908;51.426;7.714;2023-06-19T11:20:09;99434.00;;;27.18;56.43
71195;BME280;58908;51.426;7.714;2023-06-19T11:22:37;99435.50;;;27.27;56.22
71195;BME280;58908;51.426;7.714;2023-06-19T11:25:05;99443.13;;;27.57;57.99
71195;BME280;58908;51.426;7.714;2023-06-19T11:27:32;99441.16;;;27.38;56.76
71195;BME280;58908;51.426;7.714;2023-06-19T11:30:00;99448.47;;;27.38;60.05
71195;BME280;58908;51.426;7.714;2023-06-19T11:32:33;99442.69;;;27.94;56.97
71195;BME280;58908;51.426;7.714;2023-06-19T11:35:07;99432.53;;;28.35;55.82
71195;BME280;58908;51.426;7.714;2023-06-19T11:37:33;99428.78;;;28.55;53.18
71195;BME280;58908;51.426;7.714;2023-06-19T11:40:02;99428.13;;;28.92;52.98
71195;BME280;58908;51.426;7.714;2023-06-19T11:42:43;99424.94;;;28.04;53.07
71195;BME280;58908;51.426;7.714;2023-06-19T11:45:10;99428.66;;;26.48;56.96
71195;BME280;58908;51.426;7.714;2023-06-19T11:47:36;99437.31;;;26.58;58.02
71195;BME280;58908;51.426;7.714;2023-06-19T11:50:03;99429.38;;;26.78;57.68
71195;BME280;58908;51.426;7.714;2023-06-19T11:52:30;99429.25;;;27.33;57.60
71195;BME280;58908;51.426;7.714;2023-06-19T11:54:56;99420.03;;;26.87;56.77
71195;BME280;58908;51.426;7.714;2023-06-19T11:57:23;99430.66;;;27.16;56.47
71195;BME280;58908;51.426;7.714;2023-06-19T11:59:50;99431.63;;;27.42;55.83
71195;BME280;58908;51.426;7.714;2023-06-19T12:02:16;99415.94;;;26.97;57.43
71195;BME280;58908;51.426;7.714;2023-06-19T12:04:42;99425.44;;;26.87;57.65
71195;BME280;58908;51.426;7.714;2023-06-19T12:07:08;99414.72;;;27.93;57.10
71195;BME280;58908;51.426;7.714;2023-06-19T12:09:36;99417.16;;;27.82;56.22
71195;BME280;58908;51.426;7.714;2023-06-19T12:12:04;99427.00;;;27.83;53.70
71195;BME280;58908;51.426;7.714;2023-06-19T12:14:31;99412.00;;;27.93;52.17
71195;BME280;58908;51.426;7.714;2023-06-19T12:16:58;99418.44;;;27.86;52.86
71195;BME280;58908;51.426;7.714;2023-06-19T12:19:24;99427.47;;;28.06;52.70
71195;BME280;58908;51.426;7.714;2023-06-19T12:21:51;99428.84;;;27.76;54.26
71195;BME280;58908;51.426;7.714;2023-06-19T12:24:17;99428.38;;;27.66;54.78
71195;BME280;58908;51.426;7.714;2023-06-19T12:26:43;99411.91;;;27.61;54.09
71195;BME280;58908;51.426;7.714;2023-06-19T12:29:10;99408.94;;;28.42;56.06
71195;BME280;58908;51.426;7.714;2023-06-19T12:31:37;99417.50;;;28.52;51.87
71195;BME280;58908;51.426;7.714;2023-06-19T12:34:04;99424.56;;;27.48;52.95
71195;BME280;58908;51.426;7.714;2023-06-19T12:36:31;99425.75;;;27.92;52.15
71195;BME280;58908;51.426;7.714;2023-06-19T12:38:58;99423.88;;;27.92;52.80
71195;BME280;58908;51.426;7.714;2023-06-19T12:41:24;99423.94;;;27.52;52.60
71195;BME280;58908;51.426;7.714;2023-06-19T12:43:50;99426.53;;;26.65;53.49
71195;BME280;58908;51.426;7.714;2023-06-19T12:46:17;99420.06;;;26.93;53.68
71195;BME280;58908;51.426;7.714;2023-06-19T12:48:44;99427.97;;;27.22;55.79
71195;BME280;58908;51.426;7.714;2023-06-19T12:51:15;99428.47;;;27.98;53.16
71195;BME280;58908;51.426;7.714;2023-06-19T12:53:41;99429.56;;;28.17;51.98
71195;BME280;58908;51.426;7.714;2023-06-19T12:56:07;99424.19;;;28.43;52.42